Sparta, NC (28675)

12:48 PM EST on January 16, 2017 (GMT -0500)
stone ridge | | Change Station

Elev 3009 ft 36.50 °N, 81.14 °W | Updated 15 minutes ago

Overcast
Overcast
55.9 °F
Feels Like 55.9 °F
N
1.1
Wind Variable Wind from East
Gusts 3.0 mph

Today
High -- | Low -- °F
--% Chance of Precip.
Yesterday
High -- | Low -- °F
Precip. -- in
Pressure 30.32 in
Visibility 2.5 miles
Clouds Overcast 100 ft
Dew Point 51 °F
Humidity 83%
Rainfall 0.14 in
Snow Depth Not available.
7:35 AM 5:33 PM
Waning Gibbous, 79% visible
METAR KGEV 161725Z AUTO 00000KT 2 1/2SM BR OVC001 08/08 A3032 RMK AO2 T00800080
Pressure 30.32 in
Visibility 2.5 miles
Clouds Overcast 100 ft
Dew Point 51 °F
Humidity 83%
Rainfall 0.14 in
Snow Depth Not available.
7:35 AM 5:33 PM
Waning Gibbous, 79% visible
METAR KGEV 161725Z AUTO 00000KT 2 1/2SM BR OVC001 08/08 A3032 RMK AO2 T00800080

Get Your Daily Forecast Email!

Thanks for signing up!

Be on the lookout for a verification email in your inbox.

You'll start receiving the daily forecast at 8 AM.

×

10-Day Weather Forecast

Almanac

Astronomy

Jan. 16, 2017 Rise Set
Actual Time
Civil Twilight
Nautical Twilight
Astronomical Twilight
Moon
Length of Visible Light
Length of Day
Tomorrow will be .
, % of the Moon is Illuminated

Today's Extremes

State Highs State Lows

Community

WunderPhotos

Upload Photos

1,962,540 photos uploaded!

WunderBlog® & News

Nearby

Air Quality

  Air Quality AQ Index Pollutant
Not available.

Snow Depth

Station Depth Elevation

Earthquake Activity

City Distance Mag. Time & Date
Minimum magnitude displayed is 2.5.

Coastal Water Temperatures

Place Temperature

Stations

Nearby Weather Stations

Station Location Temp. Windchill Dew Point Humidity Wind Precip. Elev Updated Type
                   

Watches & Warnings

There are currently no watches in effect.